createdAt,value
2018-08-18T00:00:48.036Z,18.31
2018-08-18T00:01:48.057Z,18.33
2018-08-18T00:02:48.091Z,18.29
2018-08-18T00:03:48.102Z,18.35
2018-08-18T00:04:48.124Z,18.26
2018-08-18T00:05:48.148Z,18.26
2018-08-18T00:06:48.170Z,18.26
2018-08-18T00:07:48.197Z,18.13
2018-08-18T00:08:48.215Z,18.10
2018-08-18T00:09:48.234Z,18.11
2018-08-18T00:10:48.257Z,18.13
2018-08-18T00:11:48.329Z,18.05
2018-08-18T00:12:48.305Z,18.05
2018-08-18T00:13:48.324Z,18.08
2018-08-18T00:14:48.348Z,18.05
2018-08-18T00:15:48.368Z,18.05
2018-08-18T00:16:48.391Z,18.05
2018-08-18T00:17:48.413Z,17.97
2018-08-18T00:18:48.434Z,18.01
2018-08-18T00:19:48.460Z,17.95
2018-08-18T00:20:48.482Z,17.94
2018-08-18T00:21:48.500Z,17.85
2018-08-18T00:22:48.523Z,17.78
2018-08-18T00:23:48.548Z,17.78
2018-08-18T00:24:48.567Z,17.80
2018-08-18T00:25:48.592Z,17.74
2018-08-18T00:26:48.611Z,17.76
2018-08-18T00:27:48.637Z,17.78
2018-08-18T00:28:48.657Z,17.79
2018-08-18T00:29:48.681Z,17.71
2018-08-18T00:30:48.703Z,17.83
2018-08-18T00:31:48.726Z,17.70
2018-08-18T00:32:48.745Z,17.80
2018-08-18T00:33:48.768Z,17.74
2018-08-18T00:34:48.790Z,17.78
2018-08-18T00:35:48.813Z,17.74
2018-08-18T00:36:48.834Z,17.74
2018-08-18T00:37:48.855Z,17.67
2018-08-18T00:38:49.127Z,17.65
2018-08-18T00:39:48.904Z,17.60
2018-08-18T00:40:48.924Z,17.60
2018-08-18T00:41:48.942Z,17.63
2018-08-18T00:42:48.964Z,17.63
2018-08-18T00:43:48.989Z,17.67
2018-08-18T00:44:49.010Z,17.51
2018-08-18T00:45:49.032Z,17.63
2018-08-18T00:46:49.052Z,17.54
2018-08-18T00:47:49.075Z,17.57
2018-08-18T00:48:49.097Z,17.49
2018-08-18T00:49:49.118Z,17.52
2018-08-18T00:50:49.140Z,17.33
2018-08-18T00:51:49.165Z,17.49
2018-08-18T00:52:49.185Z,17.48
2018-08-18T00:53:49.213Z,17.41
2018-08-18T00:54:49.232Z,17.52
2018-08-18T00:55:49.253Z,17.41
2018-08-18T00:56:49.274Z,17.46
2018-08-18T00:57:49.293Z,17.38
2018-08-18T00:58:49.316Z,17.39
2018-08-18T00:59:49.339Z,17.29
2018-08-18T01:00:49.362Z,17.24
2018-08-18T01:01:49.385Z,17.26
2018-08-18T01:02:49.412Z,17.29
2018-08-18T01:03:49.429Z,17.22
2018-08-18T01:04:49.447Z,17.26
2018-08-18T01:05:49.472Z,17.20
2018-08-18T01:06:49.493Z,17.16
2018-08-18T01:07:49.513Z,17.22
2018-08-18T01:08:49.538Z,17.20
2018-08-18T01:09:49.557Z,17.19
2018-08-18T01:10:49.655Z,17.09
2018-08-18T01:11:49.811Z,17.11
2018-08-18T01:12:49.657Z,17.16
2018-08-18T01:13:49.774Z,17.12
2018-08-18T01:14:49.698Z,17.14
2018-08-18T01:15:49.721Z,17.09
2018-08-18T01:16:49.713Z,17.11
2018-08-18T01:17:49.731Z,17.11
2018-08-18T01:18:49.756Z,17.15
2018-08-18T01:19:49.778Z,17.06
2018-08-18T01:20:49.798Z,17.15
2018-08-18T01:21:49.821Z,17.14
2018-08-18T01:22:49.842Z,17.08
2018-08-18T01:23:49.866Z,17.09
2018-08-18T01:24:49.888Z,17.08
2018-08-18T01:25:49.908Z,17.12
2018-08-18T01:26:49.931Z,17.11
2018-08-18T01:27:49.954Z,17.11
2018-08-18T01:28:49.976Z,17.05
2018-08-18T01:29:49.993Z,17.02
2018-08-18T01:30:50.021Z,16.93
2018-08-18T01:31:50.036Z,16.93
2018-08-18T01:32:50.060Z,16.93
2018-08-18T01:33:50.078Z,16.91
2018-08-18T01:34:50.105Z,16.89
2018-08-18T01:35:50.124Z,16.84
2018-08-18T01:36:50.149Z,16.76
2018-08-18T01:37:50.167Z,16.78
2018-08-18T01:38:50.639Z,16.78
2018-08-18T01:39:50.211Z,16.78
2018-08-18T01:40:50.231Z,16.84
2018-08-18T01:41:50.252Z,16.84
2018-08-18T01:42:50.276Z,16.86
2018-08-18T01:43:50.389Z,16.86
2018-08-18T01:44:50.317Z,16.84
2018-08-18T01:45:50.342Z,16.72
2018-08-18T01:46:50.362Z,16.78
2018-08-18T01:47:50.381Z,16.74
2018-08-18T01:48:50.402Z,16.86
2018-08-18T01:49:50.427Z,16.87
2018-08-18T01:50:50.448Z,16.84
2018-08-18T01:51:50.467Z,16.83
2018-08-18T01:52:50.492Z,16.76
2018-08-18T01:53:50.513Z,16.76
2018-08-18T01:54:50.532Z,16.75
2018-08-18T01:55:50.659Z,16.76
2018-08-18T01:56:50.578Z,16.78
2018-08-18T01:57:50.595Z,16.71
2018-08-18T01:58:50.620Z,16.72
2018-08-18T01:59:50.639Z,16.74
2018-08-18T02:00:50.661Z,16.72
2018-08-18T02:01:50.681Z,16.75
2018-08-18T02:02:50.703Z,16.68
2018-08-18T02:03:50.729Z,16.68
2018-08-18T02:04:50.750Z,16.65
2018-08-18T02:05:50.768Z,16.61
2018-08-18T02:06:50.790Z,16.61
2018-08-18T02:07:50.814Z,16.57
2018-08-18T02:08:50.831Z,16.56
2018-08-18T02:09:50.854Z,16.54
2018-08-18T02:10:50.878Z,16.54
2018-08-18T02:11:50.898Z,16.49
2018-08-18T02:12:50.919Z,16.43
2018-08-18T02:13:50.939Z,16.53
2018-08-18T02:14:50.963Z,16.57
2018-08-18T02:15:50.983Z,16.56
2018-08-18T02:16:51.008Z,16.49
2018-08-18T02:17:51.029Z,16.47
2018-08-18T02:18:51.050Z,16.43
2018-08-18T02:19:51.099Z,16.47
2018-08-18T02:20:51.093Z,16.47
2018-08-18T02:21:51.110Z,16.38
2018-08-18T02:22:51.136Z,16.47
2018-08-18T02:23:51.157Z,16.53
2018-08-18T02:24:51.178Z,16.50
2018-08-18T02:25:51.197Z,16.50
2018-08-18T02:26:51.220Z,16.43
2018-08-18T02:27:51.241Z,16.42
2018-08-18T02:28:51.265Z,16.50
2018-08-18T02:29:51.283Z,16.50
2018-08-18T02:30:51.304Z,16.53
2018-08-18T02:31:51.328Z,16.41
2018-08-18T02:32:51.348Z,16.42
2018-08-18T02:33:51.370Z,16.39
2018-08-18T02:34:51.392Z,16.43
2018-08-18T02:35:51.411Z,16.28
2018-08-18T02:36:51.433Z,16.32
2018-08-18T02:37:51.453Z,16.32
2018-08-18T02:38:51.477Z,16.31
2018-08-18T02:39:51.500Z,16.39
2018-08-18T02:40:51.522Z,16.32
2018-08-18T02:41:51.542Z,16.33
2018-08-18T02:42:51.567Z,16.32
2018-08-18T02:43:51.584Z,16.20
2018-08-18T02:44:51.605Z,16.32
2018-08-18T02:45:51.624Z,16.36
2018-08-18T02:46:51.648Z,16.33
2018-08-18T02:47:51.668Z,16.33
2018-08-18T02:48:51.690Z,16.24
2018-08-18T02:49:51.713Z,16.26
2018-08-18T02:50:51.734Z,16.20
2018-08-18T02:51:51.757Z,16.10
2018-08-18T02:52:51.779Z,16.09
2018-08-18T02:53:51.798Z,16.05
2018-08-18T02:54:51.817Z,16.20
2018-08-18T02:55:52.741Z,16.20
2018-08-18T02:56:51.862Z,16.31
2018-08-18T02:57:51.881Z,16.28
2018-08-18T02:58:51.908Z,16.32
2018-08-18T02:59:51.928Z,16.26
2018-08-18T03:00:51.949Z,16.28
2018-08-18T03:01:51.969Z,16.28
2018-08-18T03:02:51.988Z,16.20
2018-08-18T03:03:52.010Z,16.15
2018-08-18T03:04:52.031Z,16.15
2018-08-18T03:05:52.056Z,16.16
2018-08-18T03:06:52.076Z,16.13
2018-08-18T03:07:52.137Z,16.09
2018-08-18T03:08:52.121Z,15.98
2018-08-18T03:09:52.139Z,16.00
2018-08-18T03:10:52.162Z,15.94
2018-08-18T03:11:52.185Z,15.82
2018-08-18T03:12:52.203Z,15.80
2018-08-18T03:13:52.223Z,15.67
2018-08-18T03:14:52.246Z,15.68
2018-08-18T03:15:52.269Z,15.65
2018-08-18T03:16:52.290Z,15.68
2018-08-18T03:17:52.310Z,15.70
2018-08-18T03:18:52.328Z,15.62
2018-08-18T03:19:52.349Z,15.55
2018-08-18T03:20:52.371Z,15.62
2018-08-18T03:21:52.394Z,15.57
2018-08-18T03:22:52.415Z,15.57
2018-08-18T03:23:52.434Z,15.58
2018-08-18T03:24:52.458Z,15.55
2018-08-18T03:25:52.478Z,15.46
2018-08-18T03:26:52.507Z,15.47
2018-08-18T03:27:52.520Z,15.49
2018-08-18T03:28:52.559Z,15.44
2018-08-18T03:29:52.565Z,15.49
2018-08-18T03:30:52.584Z,15.49
2018-08-18T03:31:52.604Z,15.46
2018-08-18T03:32:52.622Z,15.54
2018-08-18T03:33:52.645Z,15.54
2018-08-18T03:34:52.666Z,15.49
2018-08-18T03:35:52.685Z,15.42
2018-08-18T03:36:52.708Z,15.40
2018-08-18T03:37:52.726Z,15.49
2018-08-18T03:38:52.750Z,15.37
2018-08-18T03:39:52.772Z,15.40
2018-08-18T03:40:52.789Z,15.31
2018-08-18T03:41:52.812Z,15.27
2018-08-18T03:42:52.830Z,15.31
2018-08-18T03:43:52.856Z,15.27
2018-08-18T03:44:52.874Z,15.29
2018-08-18T03:45:52.895Z,15.22
2018-08-18T03:46:52.914Z,15.25
2018-08-18T03:47:52.938Z,15.25
2018-08-18T03:48:52.959Z,15.18
2018-08-18T03:49:52.979Z,15.18
2018-08-18T03:50:53.000Z,15.31
2018-08-18T03:51:53.023Z,15.28
2018-08-18T03:52:53.042Z,15.19
2018-08-18T03:53:53.060Z,15.18
2018-08-18T03:54:53.083Z,15.19
2018-08-18T03:55:53.106Z,15.29
2018-08-18T03:56:53.124Z,15.35
2018-08-18T03:57:53.146Z,15.39
2018-08-18T03:58:53.164Z,15.37
2018-08-18T03:59:53.189Z,15.43
2018-08-18T04:00:53.206Z,15.37
2018-08-18T04:01:53.247Z,15.49
2018-08-18T04:02:53.249Z,15.44
2018-08-18T04:03:53.270Z,15.37
2018-08-18T04:04:53.292Z,15.39
2018-08-18T04:05:53.310Z,15.33
2018-08-18T04:06:53.330Z,15.39
2018-08-18T04:07:53.354Z,15.37
2018-08-18T04:08:53.375Z,15.37
2018-08-18T04:09:53.395Z,15.49
2018-08-18T04:10:53.414Z,15.51
2018-08-18T04:11:53.436Z,15.52
2018-08-18T04:12:53.457Z,15.49
2018-08-18T04:13:53.478Z,15.51
2018-08-18T04:14:53.497Z,15.54
2018-08-18T04:15:53.520Z,15.51
2018-08-18T04:16:53.539Z,15.42
2018-08-18T04:17:53.560Z,15.49
2018-08-18T04:18:53.632Z,15.46
2018-08-18T04:19:53.601Z,15.54
2018-08-18T04:20:53.625Z,15.55
2018-08-18T04:21:53.644Z,15.58
2018-08-18T04:22:53.663Z,15.47
2018-08-18T04:23:53.687Z,15.54
2018-08-18T04:24:53.707Z,15.51
2018-08-18T04:25:53.729Z,15.49
2018-08-18T04:26:53.750Z,15.49
2018-08-18T04:27:53.769Z,15.47
2018-08-18T04:28:53.792Z,15.44
2018-08-18T04:29:53.809Z,15.49
2018-08-18T04:30:53.830Z,15.54
2018-08-18T04:31:53.851Z,15.49
2018-08-18T04:32:53.878Z,15.42
2018-08-18T04:33:53.896Z,15.43
2018-08-18T04:34:53.917Z,15.39
2018-08-18T04:35:53.935Z,15.36
2018-08-18T04:36:53.959Z,15.28
2018-08-18T04:37:53.976Z,15.31
2018-08-18T04:38:53.998Z,15.14
2018-08-18T04:39:54.022Z,15.18
2018-08-18T04:40:54.044Z,15.19
2018-08-18T04:41:54.062Z,15.10
2018-08-18T04:42:54.082Z,15.14
2018-08-18T04:43:54.152Z,15.17
2018-08-18T04:44:54.123Z,15.14
2018-08-18T04:45:54.144Z,15.09
2018-08-18T04:46:54.164Z,15.11
2018-08-18T04:47:54.187Z,15.09
2018-08-18T04:48:54.207Z,15.14
2018-08-18T04:49:54.230Z,15.21
2018-08-18T04:50:54.248Z,15.28
2018-08-18T04:51:54.273Z,15.28
2018-08-18T04:52:54.294Z,15.21
2018-08-18T04:53:54.314Z,15.28
2018-08-18T04:54:54.333Z,15.25
2018-08-18T04:55:54.356Z,15.18
2018-08-18T04:56:54.384Z,15.18
2018-08-18T04:57:54.394Z,15.27
2018-08-18T04:58:54.416Z,15.31
2018-08-18T04:59:54.442Z,15.31
2018-08-18T05:00:54.475Z,15.37
2018-08-18T05:01:54.478Z,15.40
2018-08-18T05:02:54.506Z,15.36
2018-08-18T05:03:54.523Z,15.31
2018-08-18T05:04:54.541Z,15.19
2018-08-18T05:05:54.564Z,15.33
2018-08-18T05:06:54.584Z,15.25
2018-08-18T05:07:54.608Z,15.28
2018-08-18T05:08:54.683Z,15.27
2018-08-18T05:09:54.648Z,15.22
2018-08-18T05:10:54.671Z,15.28
2018-08-18T05:11:54.688Z,15.36
2018-08-18T05:12:54.710Z,15.28
2018-08-18T05:13:54.728Z,15.31
2018-08-18T05:14:54.749Z,15.31
2018-08-18T05:15:54.775Z,15.37
2018-08-18T05:16:54.795Z,15.37
2018-08-18T05:17:54.815Z,15.40
2018-08-18T05:18:54.868Z,15.40
2018-08-18T05:19:54.854Z,15.44
2018-08-18T05:20:54.876Z,15.46
2018-08-18T05:21:54.896Z,15.44
2018-08-18T05:22:54.920Z,15.57
2018-08-18T05:23:54.940Z,15.55
2018-08-18T05:24:54.963Z,15.55
2018-08-18T05:25:54.980Z,15.70
2018-08-18T05:26:55.002Z,15.70
2018-08-18T05:27:55.024Z,15.77
2018-08-18T05:28:55.047Z,15.79
2018-08-18T05:29:55.063Z,15.83
2018-08-18T05:30:55.085Z,15.94
2018-08-18T05:31:55.110Z,15.97
2018-08-18T05:32:55.129Z,16.15
2018-08-18T05:33:55.151Z,16.31
2018-08-18T05:34:55.172Z,16.28
2018-08-18T05:35:55.194Z,16.28
2018-08-18T05:36:55.213Z,16.46
2018-08-18T05:37:55.233Z,16.42
2018-08-18T05:38:55.258Z,16.54
2018-08-18T05:39:55.279Z,16.54
2018-08-18T05:40:55.301Z,16.54
2018-08-18T05:41:55.321Z,16.58
2018-08-18T05:42:55.376Z,16.50
2018-08-18T05:43:55.362Z,16.32
2018-08-18T05:44:55.386Z,16.29
2018-08-18T05:45:55.408Z,16.16
2018-08-18T05:46:55.430Z,16.20
2018-08-18T05:47:55.452Z,16.21
2018-08-18T05:48:55.472Z,16.17
2018-08-18T05:49:55.495Z,16.26
2018-08-18T05:50:55.517Z,16.26
2018-08-18T05:51:55.541Z,16.28
2018-08-18T05:52:55.557Z,16.15
2018-08-18T05:53:55.581Z,16.15
2018-08-18T05:54:55.646Z,16.16
2018-08-18T05:55:55.625Z,16.15
2018-08-18T05:56:55.647Z,16.17
2018-08-18T05:57:55.668Z,16.29
2018-08-18T05:58:55.689Z,16.26
2018-08-18T05:59:55.710Z,16.38
2018-08-18T06:00:55.732Z,16.42
2018-08-18T06:01:55.752Z,16.50
2018-08-18T06:02:55.775Z,16.49
2018-08-18T06:03:55.795Z,16.50
2018-08-18T06:04:55.817Z,16.50
2018-08-18T06:05:55.838Z,16.56
2018-08-18T06:06:55.859Z,16.58
2018-08-18T06:07:55.881Z,16.61
2018-08-18T06:08:55.906Z,16.68
2018-08-18T06:09:55.925Z,16.71
2018-08-18T06:10:55.945Z,16.84
2018-08-18T06:11:55.994Z,16.84
2018-08-18T06:12:55.992Z,16.86
2018-08-18T06:13:56.012Z,16.84
2018-08-18T06:14:56.035Z,16.83
2018-08-18T06:15:56.053Z,16.94
2018-08-18T06:16:56.078Z,17.06
2018-08-18T06:17:56.098Z,17.08
2018-08-18T06:18:56.117Z,17.08
2018-08-18T06:19:56.143Z,17.12
2018-08-18T06:20:56.163Z,17.29
2018-08-18T06:21:56.182Z,17.33
2018-08-18T06:22:56.203Z,17.38
2018-08-18T06:23:56.226Z,17.46
2018-08-18T06:24:56.251Z,17.49
2018-08-18T06:25:56.269Z,17.54
2018-08-18T06:26:56.291Z,17.52
2018-08-18T06:27:56.313Z,17.68
2018-08-18T06:28:56.335Z,17.74
2018-08-18T06:29:56.357Z,17.74
2018-08-18T06:30:56.379Z,17.76
2018-08-18T06:31:56.400Z,17.74
2018-08-18T06:32:56.423Z,17.76
2018-08-18T06:33:56.447Z,17.85
2018-08-18T06:34:56.603Z,17.82
2018-08-18T06:35:56.497Z,17.87
2018-08-18T06:36:56.511Z,17.82
2018-08-18T06:37:56.535Z,17.95
2018-08-18T06:38:56.554Z,17.94
2018-08-18T06:39:56.577Z,17.85
2018-08-18T06:40:56.637Z,17.92
2018-08-18T06:41:56.747Z,18.01
2018-08-18T06:42:56.645Z,17.94
2018-08-18T06:43:56.668Z,18.08
2018-08-18T06:44:56.687Z,18.07
2018-08-18T06:45:56.711Z,18.04
2018-08-18T06:46:56.734Z,18.00
2018-08-18T06:47:56.756Z,18.01
2018-08-18T06:48:56.783Z,18.04
2018-08-18T06:49:56.799Z,18.08
2018-08-18T06:50:56.823Z,18.18
2018-08-18T06:51:56.845Z,18.22
2018-08-18T06:52:56.868Z,18.20
2018-08-18T06:53:56.889Z,18.25
2018-08-18T06:54:57.083Z,18.18
2018-08-18T06:55:56.937Z,18.15
2018-08-18T06:56:56.962Z,18.20
2018-08-18T06:57:56.979Z,18.19
2018-08-18T06:58:56.999Z,18.35
2018-08-18T06:59:57.025Z,18.28
2018-08-18T07:00:57.046Z,18.43
2018-08-18T07:01:57.067Z,18.37
2018-08-18T07:02:57.091Z,18.44
2018-08-18T07:03:57.111Z,18.49
2018-08-18T07:04:57.135Z,18.40
2018-08-18T07:05:57.188Z,18.38
2018-08-18T07:06:57.179Z,18.41
2018-08-18T07:07:57.204Z,18.45
2018-08-18T07:08:57.223Z,18.52
2018-08-18T07:09:57.249Z,18.55
2018-08-18T07:10:57.268Z,18.63
2018-08-18T07:11:57.291Z,18.62
2018-08-18T07:12:57.316Z,18.62
2018-08-18T07:13:57.339Z,18.63
2018-08-18T07:14:57.359Z,18.66
2018-08-18T07:15:57.385Z,18.74
2018-08-18T07:16:57.404Z,18.78
2018-08-18T07:17:57.432Z,18.78
2018-08-18T07:18:57.449Z,18.96
2018-08-18T07:19:57.472Z,18.93
2018-08-18T07:20:57.495Z,18.92
2018-08-18T07:21:57.516Z,18.93
2018-08-18T07:22:57.540Z,18.96
2018-08-18T07:23:57.563Z,19.00
2018-08-18T07:24:57.588Z,19.09
2018-08-18T07:25:57.611Z,19.12
2018-08-18T07:26:57.634Z,19.09
2018-08-18T07:27:57.657Z,19.14
2018-08-18T07:28:57.795Z,19.14
2018-08-18T07:29:57.701Z,19.19
2018-08-18T07:30:57.721Z,19.16
2018-08-18T07:31:57.745Z,19.33
2018-08-18T07:32:57.769Z,19.33
2018-08-18T07:33:57.792Z,19.48
2018-08-18T07:34:57.817Z,19.58
2018-08-18T07:35:57.840Z,19.55
2018-08-18T07:36:57.863Z,19.67
2018-08-18T07:37:57.885Z,19.59
2018-08-18T07:38:57.964Z,19.70
2018-08-18T07:39:57.932Z,19.59
2018-08-18T07:40:57.954Z,19.73
2018-08-18T07:41:57.976Z,19.76
2018-08-18T07:42:57.998Z,19.71
2018-08-18T07:43:58.036Z,19.79
2018-08-18T07:44:58.044Z,19.77
2018-08-18T07:45:58.073Z,19.81
2018-08-18T07:46:58.093Z,19.85
2018-08-18T07:47:58.118Z,19.82
2018-08-18T07:48:58.139Z,19.94
2018-08-18T07:49:58.160Z,19.95
2018-08-18T07:50:58.187Z,20.00
2018-08-18T07:51:58.208Z,20.10
2018-08-18T07:52:58.273Z,20.13
2018-08-18T07:53:58.257Z,20.28
2018-08-18T07:54:58.278Z,20.25
2018-08-18T07:55:58.304Z,20.29
2018-08-18T07:56:58.328Z,20.25
2018-08-18T07:57:58.350Z,20.25
2018-08-18T07:58:58.372Z,20.25
2018-08-18T07:59:58.400Z,20.14
2018-08-18T08:00:58.422Z,20.24
2018-08-18T08:01:58.443Z,20.25
2018-08-18T08:02:58.466Z,20.25
2018-08-18T08:03:58.491Z,20.21
2018-08-18T08:04:58.547Z,20.00
2018-08-18T08:05:58.539Z,20.06
2018-08-18T08:06:58.561Z,20.11
2018-08-18T08:07:58.585Z,20.03
2018-08-18T08:08:58.617Z,19.81
2018-08-18T08:09:58.633Z,20.00
2018-08-18T08:10:58.656Z,20.11
2018-08-18T08:11:58.686Z,20.16
2018-08-18T08:12:58.739Z,20.28
2018-08-18T08:13:58.728Z,20.40
2018-08-18T08:14:58.751Z,20.37
2018-08-18T08:15:58.779Z,20.43
2018-08-18T08:16:58.804Z,20.44
2018-08-18T08:17:58.821Z,20.58
2018-08-18T08:18:58.846Z,20.70
2018-08-18T08:19:58.873Z,20.88
2018-08-18T08:20:58.896Z,20.84
2018-08-18T08:21:58.917Z,21.05
2018-08-18T08:22:58.942Z,21.21
2018-08-18T08:23:58.968Z,21.11
2018-08-18T08:24:58.988Z,20.97
2018-08-18T08:25:59.012Z,21.02
2018-08-18T08:26:59.039Z,21.00
2018-08-18T08:27:59.060Z,21.02
2018-08-18T08:28:59.085Z,21.00
2018-08-18T08:29:59.109Z,21.20
2018-08-18T08:30:59.133Z,21.03
2018-08-18T08:31:59.156Z,21.14
2018-08-18T08:32:59.181Z,21.05
2018-08-18T08:33:59.207Z,20.96
2018-08-18T08:34:59.228Z,20.97
2018-08-18T08:35:59.256Z,21.06
2018-08-18T08:36:59.279Z,21.14
2018-08-18T08:37:59.301Z,21.11
2018-08-18T08:38:59.328Z,21.06
2018-08-18T08:39:59.352Z,21.02
2018-08-18T08:40:59.373Z,21.06
2018-08-18T08:41:59.399Z,21.05
2018-08-18T08:42:59.425Z,21.09
2018-08-18T08:43:59.449Z,21.12
2018-08-18T08:44:59.474Z,21.27
2018-08-18T08:45:59.494Z,21.48
2018-08-18T08:46:59.521Z,21.67
2018-08-18T08:47:59.543Z,21.80
2018-08-18T08:48:59.660Z,21.80
2018-08-18T08:49:59.591Z,21.82
2018-08-18T08:50:59.666Z,21.88
2018-08-18T08:51:59.643Z,21.89
2018-08-18T08:52:59.665Z,21.83
2018-08-18T08:53:59.690Z,21.93
2018-08-18T08:54:59.714Z,21.98
2018-08-18T08:55:59.740Z,21.98
2018-08-18T08:56:59.764Z,22.06
2018-08-18T08:57:59.791Z,22.06
2018-08-18T08:58:59.864Z,21.99
2018-08-18T08:59:59.836Z,22.13
2018-08-18T09:00:59.860Z,22.22
2018-08-18T09:01:59.888Z,22.23
2018-08-18T09:02:59.916Z,22.20
2018-08-18T09:03:59.937Z,22.22
2018-08-18T09:04:59.959Z,22.29
2018-08-18T09:05:59.984Z,22.17
2018-08-18T09:07:00.009Z,22.15
2018-08-18T09:08:00.036Z,22.32
2018-08-18T09:09:00.060Z,22.36
2018-08-18T09:10:00.083Z,22.13
2018-08-18T09:11:00.108Z,22.08
2018-08-18T09:12:00.133Z,22.14
2018-08-18T09:13:00.158Z,22.18
2018-08-18T09:14:00.185Z,22.22
2018-08-18T09:15:00.207Z,22.26
2018-08-18T09:16:00.236Z,22.28
2018-08-18T09:17:00.264Z,22.30
2018-08-18T09:18:00.285Z,22.35
2018-08-18T09:19:00.306Z,22.51
2018-08-18T09:20:00.382Z,22.50
2018-08-18T09:21:00.358Z,22.39
2018-08-18T09:22:00.385Z,22.45
2018-08-18T09:23:00.411Z,22.43
2018-08-18T09:24:00.435Z,22.45
2018-08-18T09:25:00.460Z,22.47
2018-08-18T09:26:00.507Z,22.54
2018-08-18T09:27:00.507Z,22.60
2018-08-18T09:28:00.536Z,22.68
2018-08-18T09:29:00.558Z,22.70
2018-08-18T09:30:00.592Z,22.73
2018-08-18T09:31:00.613Z,22.72
2018-08-18T09:32:00.635Z,22.78
2018-08-18T09:33:00.661Z,22.75
2018-08-18T09:34:00.685Z,22.69
2018-08-18T09:35:00.708Z,22.70
2018-08-18T09:36:00.736Z,22.72
2018-08-18T09:37:00.759Z,22.66
2018-08-18T09:38:00.788Z,22.78
2018-08-18T09:39:00.812Z,22.75
2018-08-18T09:40:00.837Z,22.80
2018-08-18T09:41:00.861Z,22.91
2018-08-18T09:42:00.887Z,22.87
2018-08-18T09:43:00.910Z,22.84
2018-08-18T09:44:00.935Z,22.93
2018-08-18T09:45:00.963Z,22.73
2018-08-18T09:46:00.987Z,22.69
2018-08-18T09:47:01.012Z,22.68
2018-08-18T09:48:01.039Z,22.70
2018-08-18T09:49:01.064Z,22.78
2018-08-18T09:50:01.090Z,22.69
2018-08-18T09:51:01.113Z,22.84
2018-08-18T09:52:01.142Z,22.83
2018-08-18T09:53:01.165Z,22.76
2018-08-18T09:54:01.190Z,22.72
2018-08-18T09:55:01.214Z,22.65
2018-08-18T09:56:01.247Z,22.73
2018-08-18T09:57:01.297Z,22.55
2018-08-18T09:58:01.288Z,22.59
2018-08-18T09:59:01.315Z,22.70
2018-08-18T10:00:01.643Z,22.84
2018-08-18T10:01:01.365Z,22.85
2018-08-18T10:02:01.398Z,22.87
2018-08-18T10:03:01.418Z,22.87
2018-08-18T10:04:01.644Z,22.87
2018-08-18T10:05:01.471Z,22.90
2018-08-18T10:06:01.490Z,22.91
2018-08-18T10:07:01.517Z,23.09
2018-08-18T10:08:01.542Z,22.91
2018-08-18T10:09:01.670Z,22.98
2018-08-18T10:10:01.595Z,23.06
2018-08-18T10:11:01.620Z,22.91
2018-08-18T10:12:01.646Z,22.90
2018-08-18T10:13:01.669Z,22.99
2018-08-18T10:14:01.696Z,23.03
2018-08-18T10:15:01.719Z,23.20
2018-08-18T10:16:01.748Z,23.34
2018-08-18T10:17:01.773Z,23.28
2018-08-18T10:18:01.799Z,23.36
2018-08-18T10:19:01.821Z,23.44
2018-08-18T10:20:01.847Z,23.37
2018-08-18T10:21:01.875Z,23.25
2018-08-18T10:22:01.896Z,23.41
2018-08-18T10:23:01.924Z,23.59
2018-08-18T10:24:01.951Z,23.59
2018-08-18T10:25:01.974Z,23.54
2018-08-18T10:26:02.000Z,23.56
2018-08-18T10:27:02.027Z,23.68
2018-08-18T10:28:02.049Z,23.54
2018-08-18T10:29:02.079Z,23.32
2018-08-18T10:30:02.104Z,23.31
2018-08-18T10:31:02.130Z,23.47
2018-08-18T10:32:02.156Z,23.62
2018-08-18T10:33:02.182Z,23.69
2018-08-18T10:34:02.207Z,23.62
2018-08-18T10:35:02.230Z,23.55
2018-08-18T10:36:02.256Z,23.44
2018-08-18T10:37:02.286Z,23.40
2018-08-18T10:38:02.308Z,23.47
2018-08-18T10:39:02.333Z,23.25
2018-08-18T10:40:02.361Z,23.36
2018-08-18T10:41:02.387Z,23.23
2018-08-18T10:42:02.422Z,23.08
2018-08-18T10:43:02.437Z,23.02
2018-08-18T10:44:02.464Z,23.03
2018-08-18T10:45:02.487Z,23.12
2018-08-18T10:46:02.515Z,23.15
2018-08-18T10:47:02.538Z,23.34
2018-08-18T10:48:02.565Z,23.48
2018-08-18T10:49:02.592Z,23.63
2018-08-18T10:50:02.615Z,23.68
2018-08-18T10:51:02.643Z,23.73
2018-08-18T10:52:02.668Z,23.80
2018-08-18T10:53:02.697Z,23.92
2018-08-18T10:54:02.718Z,23.92
2018-08-18T10:55:02.747Z,23.99
2018-08-18T10:56:02.769Z,24.03
2018-08-18T10:57:02.795Z,24.01
2018-08-18T10:58:02.831Z,24.02
2018-08-18T10:59:02.846Z,23.99
2018-08-18T11:00:02.878Z,23.88
2018-08-18T11:01:02.901Z,23.93
2018-08-18T11:02:02.928Z,23.96
2018-08-18T11:03:02.953Z,23.73
2018-08-18T11:04:03.089Z,23.81
2018-08-18T11:05:03.011Z,23.83
2018-08-18T11:06:03.031Z,23.77
2018-08-18T11:07:03.056Z,23.76
2018-08-18T11:08:03.086Z,23.77
2018-08-18T11:09:03.106Z,23.55
2018-08-18T11:10:03.134Z,23.40
2018-08-18T11:11:03.159Z,23.58
2018-08-18T11:12:03.184Z,23.77
2018-08-18T11:13:03.209Z,23.91
2018-08-18T11:14:03.237Z,24.03
2018-08-18T11:15:03.261Z,24.18
2018-08-18T11:16:03.290Z,24.30
2018-08-18T11:17:03.313Z,24.43
2018-08-18T11:18:03.345Z,24.38
2018-08-18T11:19:03.368Z,24.29
2018-08-18T11:20:03.396Z,24.30
2018-08-18T11:21:03.419Z,24.38
2018-08-18T11:22:03.448Z,24.40
2018-08-18T11:23:03.470Z,24.40
2018-08-18T11:24:03.495Z,24.45
2018-08-18T11:25:03.522Z,24.36
2018-08-18T11:26:03.546Z,24.43
2018-08-18T11:27:03.576Z,24.30
2018-08-18T11:28:03.598Z,24.14
2018-08-18T11:29:03.626Z,23.92
2018-08-18T11:30:03.653Z,23.74
2018-08-18T11:31:03.676Z,23.69
2018-08-18T11:32:03.705Z,23.68
2018-08-18T11:33:03.728Z,23.73
2018-08-18T11:34:03.754Z,23.92
2018-08-18T11:35:03.807Z,24.05
2018-08-18T11:36:03.814Z,24.29
2018-08-18T11:37:03.835Z,24.30
2018-08-18T11:38:03.860Z,24.08
2018-08-18T11:39:03.884Z,24.05
2018-08-18T11:40:03.913Z,24.03
2018-08-18T11:41:03.938Z,24.08
2018-08-18T11:42:03.964Z,23.87
2018-08-18T11:43:03.991Z,24.06
2018-08-18T11:44:04.017Z,24.20
2018-08-18T11:45:04.043Z,24.32
2018-08-18T11:46:04.070Z,24.38
2018-08-18T11:47:04.110Z,24.50
2018-08-18T11:48:04.119Z,24.66
2018-08-18T11:49:04.152Z,24.54
2018-08-18T11:50:04.174Z,24.53
2018-08-18T11:51:04.200Z,24.50
2018-08-18T11:52:04.225Z,24.55
2018-08-18T11:53:04.249Z,24.51
2018-08-18T11:54:04.276Z,24.35
2018-08-18T11:55:04.301Z,24.43
2018-08-18T11:56:04.327Z,24.53
2018-08-18T11:57:04.356Z,24.54
2018-08-18T11:58:04.381Z,24.50
2018-08-18T11:59:04.408Z,24.51
2018-08-18T12:00:04.434Z,24.54
2018-08-18T12:01:04.467Z,24.66
2018-08-18T12:02:04.500Z,24.61
2018-08-18T12:03:04.509Z,24.68
2018-08-18T12:04:04.539Z,24.66
2018-08-18T12:05:04.566Z,24.73
2018-08-18T12:06:04.591Z,24.68
2018-08-18T12:07:04.617Z,24.65
2018-08-18T12:08:04.640Z,24.55
2018-08-18T12:09:04.670Z,24.57
2018-08-18T12:10:04.692Z,24.63
2018-08-18T12:11:04.798Z,24.66
2018-08-18T12:12:04.750Z,24.74
2018-08-18T12:13:04.775Z,24.88
2018-08-18T12:14:04.801Z,24.85
2018-08-18T12:15:04.824Z,24.89
2018-08-18T12:16:04.850Z,24.74
2018-08-18T12:17:04.880Z,24.74
2018-08-18T12:18:04.906Z,24.66
2018-08-18T12:19:04.932Z,24.77
2018-08-18T12:20:04.959Z,24.76
2018-08-18T12:21:04.982Z,24.74
2018-08-18T12:22:05.011Z,24.73
2018-08-18T12:23:05.039Z,24.85
2018-08-18T12:24:05.067Z,24.76
2018-08-18T12:25:05.087Z,24.69
2018-08-18T12:26:05.118Z,24.55
2018-08-18T12:27:05.140Z,24.42
2018-08-18T12:28:05.171Z,24.40
2018-08-18T12:29:05.246Z,24.35
2018-08-18T12:30:05.276Z,24.29
2018-08-18T12:31:05.248Z,24.21
2018-08-18T12:32:05.275Z,24.17
2018-08-18T12:33:05.301Z,24.14
2018-08-18T12:34:05.333Z,24.05
2018-08-18T12:35:05.352Z,24.05
2018-08-18T12:36:05.382Z,24.02
2018-08-18T12:37:05.449Z,24.21
2018-08-18T12:38:05.430Z,24.32
2018-08-18T12:39:05.709Z,24.48
2018-08-18T12:40:05.481Z,24.80
2018-08-18T12:41:05.508Z,25.04
2018-08-18T12:42:05.585Z,24.85
2018-08-18T12:43:05.558Z,24.60
2018-08-18T12:44:05.589Z,24.38
2018-08-18T12:45:05.611Z,24.38
2018-08-18T12:46:05.639Z,24.35
2018-08-18T12:47:05.664Z,24.51
2018-08-18T12:48:06.241Z,24.40
2018-08-18T12:49:05.715Z,24.55
2018-08-18T12:50:05.886Z,24.55
2018-08-18T12:51:05.766Z,24.51
2018-08-18T12:52:05.792Z,24.42
2018-08-18T12:53:05.822Z,24.48